createdAt,value
2022-08-22T00:01:12.598Z,16.77
2022-08-22T00:06:26.906Z,16.69
2022-08-22T00:11:40.478Z,16.71
2022-08-22T00:16:54.866Z,16.66
2022-08-22T00:22:02.674Z,16.66
2022-08-22T00:27:13.555Z,16.53
2022-08-22T00:32:27.299Z,16.66
2022-08-22T00:37:34.291Z,16.66
2022-08-22T00:43:20.865Z,16.68
2022-08-22T00:49:10.609Z,16.61
2022-08-22T00:54:24.445Z,16.74
2022-08-22T00:59:42.989Z,16.67
2022-08-22T01:05:08.618Z,16.69
2022-08-22T01:10:43.653Z,16.75
2022-08-22T01:15:49.585Z,16.87
2022-08-22T01:21:26.237Z,16.74
2022-08-22T01:27:03.756Z,16.70
2022-08-22T01:32:37.249Z,16.66
2022-08-22T01:38:10.958Z,16.66
2022-08-22T01:43:22.329Z,16.64
2022-08-22T01:48:50.645Z,16.68
2022-08-22T01:54:04.498Z,16.72
2022-08-22T01:59:11.094Z,16.82
2022-08-22T02:04:23.282Z,16.87
2022-08-22T02:09:37.074Z,16.94
2022-08-22T02:14:44.954Z,16.97
2022-08-22T02:19:56.596Z,17.00
2022-08-22T02:25:09.912Z,16.87
2022-08-22T02:30:16.524Z,16.86
2022-08-22T02:35:27.972Z,16.90
2022-08-22T02:40:38.989Z,16.96
2022-08-22T02:45:52.773Z,16.91
2022-08-22T02:51:03.109Z,16.81
2022-08-22T02:56:14.686Z,16.93
2022-08-22T03:01:34.642Z,17.01
2022-08-22T03:06:43.322Z,17.09
2022-08-22T03:12:21.553Z,17.12
2022-08-22T03:17:31.666Z,17.12
2022-08-22T03:22:43.647Z,16.99
2022-08-22T03:28:00.794Z,17.03
2022-08-22T03:33:20.119Z,17.10
2022-08-22T03:38:27.302Z,17.16
2022-08-22T03:43:55.452Z,17.21
2022-08-22T03:49:14.302Z,17.18
2022-08-22T03:54:54.088Z,17.12
2022-08-22T04:00:29.693Z,17.13
2022-08-22T04:06:11.546Z,17.00
2022-08-22T04:11:39.899Z,17.01
2022-08-22T04:17:12.164Z,17.14
2022-08-22T04:22:34.321Z,17.22
2022-08-22T04:27:42.875Z,17.28
2022-08-22T04:32:55.947Z,17.36
2022-08-22T04:38:03.522Z,17.38
2022-08-22T04:43:13.304Z,17.48
2022-08-22T04:48:22.439Z,17.48
2022-08-22T04:53:49.705Z,17.49
2022-08-22T04:58:58.241Z,17.47
2022-08-22T05:04:07.040Z,17.54
2022-08-22T05:09:16.350Z,17.55
2022-08-22T05:14:26.715Z,17.65
2022-08-22T05:19:35.315Z,17.49
2022-08-22T05:24:42.432Z,17.59
2022-08-22T05:29:49.166Z,17.64
2022-08-22T05:34:57.024Z,17.60
2022-08-22T05:40:02.563Z,17.62
2022-08-22T05:45:12.098Z,17.74
2022-08-22T05:50:19.618Z,17.76
2022-08-22T05:55:27.901Z,17.80
2022-08-22T06:00:37.717Z,17.85
2022-08-22T06:05:46.137Z,17.86
2022-08-22T06:10:54.069Z,17.94
2022-08-22T06:16:09.292Z,17.95
2022-08-22T06:21:21.066Z,17.95
2022-08-22T06:26:27.063Z,18.18
2022-08-22T06:31:34.261Z,18.14
2022-08-22T06:36:41.601Z,18.17
2022-08-22T06:41:52.299Z,18.16
2022-08-22T06:46:59.903Z,18.11
2022-08-22T06:52:09.005Z,17.99
2022-08-22T06:57:27.132Z,17.97
2022-08-22T07:02:37.618Z,18.05
2022-08-22T07:07:42.541Z,17.95
2022-08-22T07:12:49.338Z,18.02
2022-08-22T07:18:00.487Z,18.05
2022-08-22T07:23:10.045Z,17.97
2022-08-22T07:28:31.737Z,18.01
2022-08-22T07:33:46.644Z,18.07
2022-08-22T07:39:05.200Z,18.02
2022-08-22T07:44:19.228Z,17.82
2022-08-22T07:49:27.836Z,17.77
2022-08-22T07:54:38.372Z,17.96
2022-08-22T07:59:48.950Z,17.91
2022-08-22T08:04:55.472Z,17.95
2022-08-22T08:10:08.915Z,18.14
2022-08-22T08:15:19.496Z,18.13
2022-08-22T08:20:26.483Z,18.24
2022-08-22T08:25:33.883Z,18.30
2022-08-22T08:30:43.133Z,18.28
2022-08-22T08:36:02.434Z,18.20
2022-08-22T08:47:21.339Z,18.00
2022-08-22T08:53:01.416Z,17.96
2022-08-22T08:58:40.443Z,17.76
2022-08-22T09:04:42.363Z,17.95
2022-08-22T09:10:27.275Z,17.95
2022-08-22T09:16:07.457Z,17.92
2022-08-22T09:22:00.346Z,17.76
2022-08-22T09:27:29.383Z,18.01
2022-08-22T09:33:05.384Z,18.21
2022-08-22T09:38:59.377Z,18.23
2022-08-22T09:44:39.593Z,18.35
2022-08-22T09:50:17.689Z,18.45
2022-08-22T09:55:55.336Z,18.69
2022-08-22T10:01:32.766Z,18.76
2022-08-22T10:07:11.673Z,19.00
2022-08-22T10:12:40.458Z,19.10
2022-08-22T10:18:22.488Z,19.24
2022-08-22T10:23:59.357Z,19.13
2022-08-22T10:29:47.438Z,19.13
2022-08-22T10:35:25.626Z,18.87
2022-08-22T10:40:58.367Z,19.12
2022-08-22T10:46:27.283Z,18.78
2022-08-22T10:51:55.402Z,18.86
2022-08-22T10:57:33.336Z,18.81
2022-08-22T11:03:04.381Z,18.96
2022-08-22T11:09:10.447Z,19.04
2022-08-22T11:15:10.338Z,19.04
2022-08-22T11:20:57.297Z,19.22
2022-08-22T11:26:47.491Z,19.20
2022-08-22T11:32:23.316Z,19.06
2022-08-22T11:38:03.281Z,19.12
2022-08-22T11:43:47.284Z,19.20
2022-08-22T11:49:38.288Z,19.26
2022-08-22T11:55:37.289Z,19.55
2022-08-22T12:01:17.219Z,19.62
2022-08-22T12:06:57.293Z,19.81
2022-08-22T12:12:47.296Z,19.85
2022-08-22T12:18:44.323Z,19.91
2022-08-22T12:24:48.297Z,20.18
2022-08-22T12:30:27.263Z,20.78
2022-08-22T12:36:09.478Z,20.85
2022-08-22T12:42:18.302Z,21.83
2022-08-22T12:48:03.315Z,22.66
2022-08-22T12:54:00.284Z,22.68
2022-08-22T12:59:39.310Z,22.06
2022-08-22T13:05:20.302Z,22.40
2022-08-22T13:10:54.335Z,22.60
2022-08-22T13:16:28.279Z,22.54
2022-08-22T13:22:06.338Z,22.75
2022-08-22T13:27:40.604Z,22.68
2022-08-22T13:33:30.321Z,22.24
2022-08-22T13:39:07.363Z,21.95
2022-08-22T13:44:43.312Z,21.79
2022-08-22T13:50:20.297Z,22.33
2022-08-22T13:55:57.594Z,24.28
2022-08-22T14:01:44.360Z,23.79
2022-08-22T14:07:39.309Z,22.61
2022-08-22T14:13:48.336Z,22.32
2022-08-22T14:19:30.317Z,22.55
2022-08-22T14:25:09.307Z,22.00
2022-08-22T14:30:44.292Z,21.91
2022-08-22T14:36:24.307Z,21.51
2022-08-22T14:42:04.165Z,21.42
2022-08-22T14:47:55.373Z,21.52
2022-08-22T14:53:35.319Z,21.46
2022-08-22T14:59:08.283Z,21.31
2022-08-22T15:04:43.282Z,21.46
2022-08-22T15:10:25.374Z,21.16
2022-08-22T15:16:03.507Z,21.01
2022-08-22T15:21:41.335Z,21.14
2022-08-22T15:27:13.364Z,21.09
2022-08-22T15:32:47.356Z,20.86
2022-08-22T15:38:36.514Z,20.76
2022-08-22T15:44:30.947Z,20.74
2022-08-22T15:50:08.315Z,20.69
2022-08-22T15:55:39.323Z,21.03
2022-08-22T17:20:15.723Z,19.25
2022-08-22T17:25:25.064Z,19.27
2022-08-22T17:30:34.812Z,19.32
2022-08-22T17:35:56.990Z,19.23
2022-08-22T17:41:08.150Z,19.20
2022-08-22T17:46:30.075Z,19.02
2022-08-22T17:51:42.547Z,19.13
2022-08-22T17:57:00.463Z,19.02
2022-08-22T18:02:16.496Z,19.11
2022-08-22T18:07:37.198Z,19.13
2022-08-22T18:12:49.023Z,19.03
2022-08-22T18:18:02.151Z,18.99
2022-08-22T18:23:21.679Z,19.05
2022-08-22T18:28:45.960Z,18.99
2022-08-22T18:33:56.600Z,19.06
2022-08-22T18:39:06.605Z,19.04
2022-08-22T18:44:12.142Z,19.10
2022-08-22T18:49:41.885Z,19.11
2022-08-22T18:55:00.747Z,19.11
2022-08-22T19:00:12.638Z,19.15
2022-08-22T19:05:48.089Z,19.13
2022-08-22T19:11:08.115Z,19.25
2022-08-22T19:16:33.135Z,19.16
2022-08-22T19:21:52.495Z,19.21
2022-08-22T19:27:31.951Z,19.13
2022-08-22T19:33:06.210Z,19.07
2022-08-22T19:38:11.021Z,18.93
2022-08-22T19:43:27.572Z,18.93
2022-08-22T19:48:44.556Z,18.89
2022-08-22T19:53:57.266Z,18.88
2022-08-22T19:59:16.694Z,18.89
2022-08-22T20:04:47.554Z,18.88
2022-08-22T20:10:02.191Z,18.91
2022-08-22T20:15:17.988Z,18.94
2022-08-22T20:20:56.979Z,18.88
2022-08-22T20:26:02.007Z,18.95
2022-08-22T20:31:11.638Z,19.03
2022-08-22T20:36:28.315Z,19.08
2022-08-22T20:41:37.476Z,19.05
2022-08-22T20:46:53.471Z,19.01
2022-08-22T20:52:00.828Z,19.07
2022-08-22T20:57:16.182Z,19.08
2022-08-22T21:02:23.821Z,19.12
2022-08-22T21:07:30.182Z,19.10
2022-08-22T21:12:34.989Z,19.09
2022-08-22T21:17:39.246Z,18.92
2022-08-22T21:22:43.446Z,18.91
2022-08-22T21:27:49.417Z,18.87
2022-08-22T21:32:56.269Z,18.83
2022-08-22T21:38:02.324Z,18.23
2022-08-22T21:43:10.831Z,17.71
2022-08-22T21:48:44.103Z,17.52
2022-08-22T21:53:47.545Z,17.40
2022-08-22T21:59:25.588Z,17.30
2022-08-22T22:04:28.967Z,17.24
2022-08-22T22:09:32.283Z,17.35
2022-08-22T22:14:37.119Z,17.52
2022-08-22T22:19:40.538Z,17.69
2022-08-22T22:24:43.885Z,17.60
2022-08-22T22:29:48.636Z,17.53
2022-08-22T22:34:52.026Z,17.48
2022-08-22T22:39:56.016Z,17.38
2022-08-22T22:45:00.904Z,17.37
2022-08-22T22:50:05.331Z,17.41
2022-08-22T22:55:10.424Z,17.28
2022-08-22T23:00:16.236Z,17.42
2022-08-22T23:05:19.552Z,17.32
2022-08-22T23:10:23.217Z,17.31
2022-08-22T23:15:28.550Z,17.19
2022-08-22T23:20:32.038Z,17.15
2022-08-22T23:25:35.486Z,17.10
2022-08-22T23:30:40.217Z,17.20
2022-08-22T23:35:43.596Z,17.10
2022-08-22T23:40:46.964Z,17.11
2022-08-22T23:45:51.959Z,17.04
2022-08-22T23:50:55.363Z,17.13
2022-08-22T23:56:09.437Z,17.20
